sensor_id;sensor_type;location;lat;lon;timestamp;temperature;humidity
9975;DHT22;5028;50.974;4.968;2023-02-28T00:00:48;0.50;99.90
9975;DHT22;5028;50.974;4.968;2023-02-28T00:03:18;0.40;99.90
9975;DHT22;5028;50.974;4.968;2023-02-28T00:05:53;0.40;99.90
9975;DHT22;5028;50.974;4.968;2023-02-28T00:08:22;0.50;99.90
9975;DHT22;5028;50.974;4.968;2023-02-28T00:11:01;0.30;99.90
9975;DHT22;5028;50.974;4.968;2023-02-28T00:13:29;0.30;99.90
9975;DHT22;5028;50.974;4.968;2023-02-28T00:16:08;0.30;99.90
9975;DHT22;5028;50.974;4.968;2023-02-28T00:18:39;0.20;99.90
9975;DHT22;5028;50.974;4.968;2023-02-28T00:21:15;0.20;99.90
9975;DHT22;5028;50.974;4.968;2023-02-28T00:23:43;0.20;99.90
9975;DHT22;5028;50.974;4.968;2023-02-28T00:26:25;0.20;99.90
9975;DHT22;5028;50.974;4.968;2023-02-28T00:28:53;0.10;99.90
9975;DHT22;5028;50.974;4.968;2023-02-28T00:31:28;0.10;99.90
9975;DHT22;5028;50.974;4.968;2023-02-28T00:33:58;0.10;99.90
9975;DHT22;5028;50.974;4.968;2023-02-28T00:36:33;0.00;99.90
9975;DHT22;5028;50.974;4.968;2023-02-28T00:39:01;0.10;99.90
9975;DHT22;5028;50.974;4.968;2023-02-28T00:41:36;-0.10;99.90
9975;DHT22;5028;50.974;4.968;2023-02-28T00:44:05;0.00;99.90
9975;DHT22;5028;50.974;4.968;2023-02-28T00:46:40;0.00;99.90
9975;DHT22;5028;50.974;4.968;2023-02-28T00:49:10;0.00;99.90
9975;DHT22;5028;50.974;4.968;2023-02-28T00:51:44;0.10;99.90
9975;DHT22;5028;50.974;4.968;2023-02-28T00:54:12;0.00;99.90
9975;DHT22;5028;50.974;4.968;2023-02-28T00:56:48;0.00;99.90
9975;DHT22;5028;50.974;4.968;2023-02-28T00:59:17;-0.10;99.90
9975;DHT22;5028;50.974;4.968;2023-02-28T01:01:52;0.00;99.90
9975;DHT22;5028;50.974;4.968;2023-02-28T01:04:22;-0.10;99.90
9975;DHT22;5028;50.974;4.968;2023-02-28T01:06:58;-0.10;99.90
9975;DHT22;5028;50.974;4.968;2023-02-28T01:09:27;0.00;99.90
9975;DHT22;5028;50.974;4.968;2023-02-28T01:12:01;-0.10;99.90
9975;DHT22;5028;50.974;4.968;2023-02-28T01:14:30;-0.10;99.90
9975;DHT22;5028;50.974;4.968;2023-02-28T01:17:06;-0.20;99.90
9975;DHT22;5028;50.974;4.968;2023-02-28T01:19:36;-0.20;99.90
9975;DHT22;5028;50.974;4.968;2023-02-28T01:22:11;-0.20;99.90
9975;DHT22;5028;50.974;4.968;2023-02-28T01:24:46;-0.30;99.90
9975;DHT22;5028;50.974;4.968;2023-02-28T01:27:21;-0.30;99.90
9975;DHT22;5028;50.974;4.968;2023-02-28T01:29:50;-0.30;99.90
9975;DHT22;5028;50.974;4.968;2023-02-28T01:32:25;-0.30;99.90
9975;DHT22;5028;50.974;4.968;2023-02-28T01:34:55;-0.40;99.90
9975;DHT22;5028;50.974;4.968;2023-02-28T01:37:31;-0.40;99.90
9975;DHT22;5028;50.974;4.968;2023-02-28T01:39:59;-0.40;99.90
9975;DHT22;5028;50.974;4.968;2023-02-28T01:42:34;-0.40;99.90
9975;DHT22;5028;50.974;4.968;2023-02-28T01:45:16;-0.40;99.90
9975;DHT22;5028;50.974;4.968;2023-02-28T01:47:55;-0.40;99.90
9975;DHT22;5028;50.974;4.968;2023-02-28T01:50:31;-0.40;99.90
9975;DHT22;5028;50.974;4.968;2023-02-28T01:53:08;-0.50;99.90
9975;DHT22;5028;50.974;4.968;2023-02-28T01:55:39;-0.50;99.90
9975;DHT22;5028;50.974;4.968;2023-02-28T01:58:14;-0.50;99.90
9975;DHT22;5028;50.974;4.968;2023-02-28T02:00:44;-0.50;99.90
9975;DHT22;5028;50.974;4.968;2023-02-28T02:03:20;-0.50;99.90
9975;DHT22;5028;50.974;4.968;2023-02-28T02:06:05;-0.50;99.90
9975;DHT22;5028;50.974;4.968;2023-02-28T02:08:40;-0.50;99.90
9975;DHT22;5028;50.974;4.968;2023-02-28T02:11:10;-0.50;99.90
9975;DHT22;5028;50.974;4.968;2023-02-28T02:13:55;-0.30;99.90
9975;DHT22;5028;50.974;4.968;2023-02-28T02:16:35;-0.50;99.90
9975;DHT22;5028;50.974;4.968;2023-02-28T02:19:33;-0.60;99.90
9975;DHT22;5028;50.974;4.968;2023-02-28T02:22:38;-0.60;99.90
9975;DHT22;5028;50.974;4.968;2023-02-28T02:25:29;-0.60;99.90
9975;DHT22;5028;50.974;4.968;2023-02-28T02:28:46;-0.70;99.90
9975;DHT22;5028;50.974;4.968;2023-02-28T02:34:42;-0.70;99.90
9975;DHT22;5028;50.974;4.968;2023-02-28T02:37:32;-0.80;99.90
9975;DHT22;5028;50.974;4.968;2023-02-28T02:40:10;-0.80;99.90
9975;DHT22;5028;50.974;4.968;2023-02-28T02:42:51;-0.80;99.90
9975;DHT22;5028;50.974;4.968;2023-02-28T02:45:33;-0.80;99.90
9975;DHT22;5028;50.974;4.968;2023-02-28T02:48:06;-0.70;99.90
9975;DHT22;5028;50.974;4.968;2023-02-28T02:50:45;-0.80;99.90
9975;DHT22;5028;50.974;4.968;2023-02-28T02:53:20;-0.80;99.90
9975;DHT22;5028;50.974;4.968;2023-02-28T02:55:57;-0.70;99.90
9975;DHT22;5028;50.974;4.968;2023-02-28T02:58:30;-0.70;99.90
9975;DHT22;5028;50.974;4.968;2023-02-28T03:01:07;-0.70;99.90
9975;DHT22;5028;50.974;4.968;2023-02-28T03:03:37;-0.70;99.90
9975;DHT22;5028;50.974;4.968;2023-02-28T03:06:29;-0.70;99.90
9975;DHT22;5028;50.974;4.968;2023-02-28T03:08:57;-0.80;99.90
9975;DHT22;5028;50.974;4.968;2023-02-28T03:11:35;-0.80;99.90
9975;DHT22;5028;50.974;4.968;2023-02-28T03:14:13;-0.90;99.90
9975;DHT22;5028;50.974;4.968;2023-02-28T03:17:12;-0.90;99.90
9975;DHT22;5028;50.974;4.968;2023-02-28T03:19:49;-0.90;99.90
9975;DHT22;5028;50.974;4.968;2023-02-28T03:22:44;-0.80;99.90
9975;DHT22;5028;50.974;4.968;2023-02-28T03:25:21;-0.90;99.90
9975;DHT22;5028;50.974;4.968;2023-02-28T03:28:03;-1.00;99.90
9975;DHT22;5028;50.974;4.968;2023-02-28T03:30:39;-1.00;99.90
9975;DHT22;5028;50.974;4.968;2023-02-28T03:33:21;-1.10;99.90
9975;DHT22;5028;50.974;4.968;2023-02-28T03:35:52;-1.10;99.90
9975;DHT22;5028;50.974;4.968;2023-02-28T03:38:35;-1.10;99.90
9975;DHT22;5028;50.974;4.968;2023-02-28T03:41:09;-0.90;99.90
9975;DHT22;5028;50.974;4.968;2023-02-28T03:43:56;-1.10;99.90
9975;DHT22;5028;50.974;4.968;2023-02-28T03:46:29;-1.20;99.90
9975;DHT22;5028;50.974;4.968;2023-02-28T03:49:11;-1.10;99.90
9975;DHT22;5028;50.974;4.968;2023-02-28T03:51:43;-1.10;99.90
9975;DHT22;5028;50.974;4.968;2023-02-28T03:54:26;-0.90;99.90
9975;DHT22;5028;50.974;4.968;2023-02-28T03:57:00;-0.90;99.90
9975;DHT22;5028;50.974;4.968;2023-02-28T03:59:41;-1.10;99.90
9975;DHT22;5028;50.974;4.968;2023-02-28T04:02:11;-1.00;99.90
9975;DHT22;5028;50.974;4.968;2023-02-28T04:04:47;-1.00;99.90
9975;DHT22;5028;50.974;4.968;2023-02-28T04:07:30;-1.00;99.90
9975;DHT22;5028;50.974;4.968;2023-02-28T04:10:08;-0.80;99.90
9975;DHT22;5028;50.974;4.968;2023-02-28T04:12:37;-1.00;99.90
9975;DHT22;5028;50.974;4.968;2023-02-28T04:15:13;-1.00;99.90
9975;DHT22;5028;50.974;4.968;2023-02-28T04:17:42;-1.00;99.90
9975;DHT22;5028;50.974;4.968;2023-02-28T04:20:17;-1.00;99.90
9975;DHT22;5028;50.974;4.968;2023-02-28T04:22:46;-1.00;99.90
9975;DHT22;5028;50.974;4.968;2023-02-28T04:25:23;-1.00;99.90
9975;DHT22;5028;50.974;4.968;2023-02-28T04:27:52;-0.90;99.90
9975;DHT22;5028;50.974;4.968;2023-02-28T04:30:26;-0.90;99.90
9975;DHT22;5028;50.974;4.968;2023-02-28T04:32:57;-1.00;99.90
9975;DHT22;5028;50.974;4.968;2023-02-28T04:35:32;-1.00;99.90
9975;DHT22;5028;50.974;4.968;2023-02-28T04:38:00;-1.00;99.90
9975;DHT22;5028;50.974;4.968;2023-02-28T04:40:37;-1.00;99.90
9975;DHT22;5028;50.974;4.968;2023-02-28T04:43:05;-1.00;99.90
9975;DHT22;5028;50.974;4.968;2023-02-28T04:45:41;-0.80;99.90
9975;DHT22;5028;50.974;4.968;2023-02-28T04:48:09;-0.80;99.90
9975;DHT22;5028;50.974;4.968;2023-02-28T04:50:47;-1.00;99.90
9975;DHT22;5028;50.974;4.968;2023-02-28T04:53:16;-1.00;99.90
9975;DHT22;5028;50.974;4.968;2023-02-28T04:55:53;-0.90;99.90
9975;DHT22;5028;50.974;4.968;2023-02-28T04:58:22;-0.90;99.90
9975;DHT22;5028;50.974;4.968;2023-02-28T05:01:02;-1.00;99.90
9975;DHT22;5028;50.974;4.968;2023-02-28T05:03:31;-0.80;99.90
9975;DHT22;5028;50.974;4.968;2023-02-28T05:06:06;-0.90;99.90
9975;DHT22;5028;50.974;4.968;2023-02-28T05:08:41;-0.90;99.90
9975;DHT22;5028;50.974;4.968;2023-02-28T05:11:19;-0.90;99.90
9975;DHT22;5028;50.974;4.968;2023-02-28T05:13:48;-0.90;99.90
9975;DHT22;5028;50.974;4.968;2023-02-28T05:16:24;-1.00;99.90
9975;DHT22;5028;50.974;4.968;2023-02-28T05:18:52;-0.90;99.90
9975;DHT22;5028;50.974;4.968;2023-02-28T05:21:29;-0.90;99.90
9975;DHT22;5028;50.974;4.968;2023-02-28T05:24:00;-0.90;99.90
9975;DHT22;5028;50.974;4.968;2023-02-28T05:26:38;-0.90;99.90
9975;DHT22;5028;50.974;4.968;2023-02-28T05:29:08;-1.00;99.90
9975;DHT22;5028;50.974;4.968;2023-02-28T05:31:43;-1.00;99.90
9975;DHT22;5028;50.974;4.968;2023-02-28T05:34:12;-1.10;99.90
9975;DHT22;5028;50.974;4.968;2023-02-28T05:36:49;-1.20;99.90
9975;DHT22;5028;50.974;4.968;2023-02-28T05:39:17;-1.20;99.90
9975;DHT22;5028;50.974;4.968;2023-02-28T05:41:54;-1.20;99.90
9975;DHT22;5028;50.974;4.968;2023-02-28T05:44:23;-1.00;99.90
9975;DHT22;5028;50.974;4.968;2023-02-28T05:46:59;-1.20;99.90
9975;DHT22;5028;50.974;4.968;2023-02-28T05:49:28;-1.20;99.90
9975;DHT22;5028;50.974;4.968;2023-02-28T05:52:03;-1.20;99.90
9975;DHT22;5028;50.974;4.968;2023-02-28T05:54:32;-1.30;99.90
9975;DHT22;5028;50.974;4.968;2023-02-28T05:57:09;-1.30;99.90
9975;DHT22;5028;50.974;4.968;2023-02-28T05:59:50;-1.40;99.90
9975;DHT22;5028;50.974;4.968;2023-02-28T06:02:24;-1.40;99.90
9975;DHT22;5028;50.974;4.968;2023-02-28T06:04:53;-1.40;99.90
9975;DHT22;5028;50.974;4.968;2023-02-28T06:07:35;-1.30;99.90
9975;DHT22;5028;50.974;4.968;2023-02-28T06:10:05;-1.30;99.90
9975;DHT22;5028;50.974;4.968;2023-02-28T06:12:41;-1.40;99.90
9975;DHT22;5028;50.974;4.968;2023-02-28T06:15:13;-1.40;99.90
9975;DHT22;5028;50.974;4.968;2023-02-28T06:17:48;-1.40;99.90
9975;DHT22;5028;50.974;4.968;2023-02-28T06:20:17;-1.40;99.90
9975;DHT22;5028;50.974;4.968;2023-02-28T06:22:51;-1.40;99.90
9975;DHT22;5028;50.974;4.968;2023-02-28T06:25:21;-1.20;99.90
9975;DHT22;5028;50.974;4.968;2023-02-28T06:27:58;-1.40;99.90
9975;DHT22;5028;50.974;4.968;2023-02-28T06:30:27;-1.50;99.90
9975;DHT22;5028;50.974;4.968;2023-02-28T06:33:05;-1.50;99.90
9975;DHT22;5028;50.974;4.968;2023-02-28T06:35:34;-1.50;99.90
9975;DHT22;5028;50.974;4.968;2023-02-28T06:38:08;-1.50;99.90
9975;DHT22;5028;50.974;4.968;2023-02-28T06:40:39;-1.50;99.90
9975;DHT22;5028;50.974;4.968;2023-02-28T06:43:16;-1.40;99.90
9975;DHT22;5028;50.974;4.968;2023-02-28T06:45:45;-1.40;99.90
9975;DHT22;5028;50.974;4.968;2023-02-28T06:48:21;-1.50;99.90
9975;DHT22;5028;50.974;4.968;2023-02-28T06:50:50;-1.40;99.90
9975;DHT22;5028;50.974;4.968;2023-02-28T06:53:25;-1.40;99.90
9975;DHT22;5028;50.974;4.968;2023-02-28T06:55:53;-1.40;99.90
9975;DHT22;5028;50.974;4.968;2023-02-28T06:58:30;-1.40;99.90
9975;DHT22;5028;50.974;4.968;2023-02-28T07:00:59;-1.40;99.90
9975;DHT22;5028;50.974;4.968;2023-02-28T07:03:35;-1.30;99.90
9975;DHT22;5028;50.974;4.968;2023-02-28T07:06:05;-1.30;99.90
9975;DHT22;5028;50.974;4.968;2023-02-28T07:08:47;-1.30;99.90
9975;DHT22;5028;50.974;4.968;2023-02-28T07:11:15;-1.30;99.90
9975;DHT22;5028;50.974;4.968;2023-02-28T07:13:52;-1.10;99.90
9975;DHT22;5028;50.974;4.968;2023-02-28T07:16:27;-1.10;99.90
9975;DHT22;5028;50.974;4.968;2023-02-28T07:18:56;-1.30;99.90
9975;DHT22;5028;50.974;4.968;2023-02-28T07:21:32;-1.20;99.90
9975;DHT22;5028;50.974;4.968;2023-02-28T07:24:00;-1.20;99.90
9975;DHT22;5028;50.974;4.968;2023-02-28T07:26:36;-1.20;99.90
9975;DHT22;5028;50.974;4.968;2023-02-28T07:29:08;-1.10;99.90
9975;DHT22;5028;50.974;4.968;2023-02-28T07:31:42;-1.10;99.90
9975;DHT22;5028;50.974;4.968;2023-02-28T07:34:11;-1.10;99.90
9975;DHT22;5028;50.974;4.968;2023-02-28T07:36:47;-1.10;99.90
9975;DHT22;5028;50.974;4.968;2023-02-28T07:39:15;-1.00;99.90
9975;DHT22;5028;50.974;4.968;2023-02-28T07:41:51;-1.00;99.90
9975;DHT22;5028;50.974;4.968;2023-02-28T07:44:21;-1.00;99.90
9975;DHT22;5028;50.974;4.968;2023-02-28T07:46:57;-0.90;99.90
9975;DHT22;5028;50.974;4.968;2023-02-28T07:49:26;-0.80;99.90
9975;DHT22;5028;50.974;4.968;2023-02-28T07:52:02;-0.80;99.90
9975;DHT22;5028;50.974;4.968;2023-02-28T07:54:31;-0.70;99.90
9975;DHT22;5028;50.974;4.968;2023-02-28T07:57:06;-0.70;99.90
9975;DHT22;5028;50.974;4.968;2023-02-28T07:59:36;-0.60;99.90
9975;DHT22;5028;50.974;4.968;2023-02-28T08:02:13;-0.50;99.90
9975;DHT22;5028;50.974;4.968;2023-02-28T08:04:48;-0.40;99.90
9975;DHT22;5028;50.974;4.968;2023-02-28T08:07:24;-0.40;99.90
9975;DHT22;5028;50.974;4.968;2023-02-28T08:10:00;-0.30;99.90
9975;DHT22;5028;50.974;4.968;2023-02-28T08:12:35;-0.20;99.90
9975;DHT22;5028;50.974;4.968;2023-02-28T08:15:07;-0.10;99.90
9975;DHT22;5028;50.974;4.968;2023-02-28T08:17:42;0.00;99.90
9975;DHT22;5028;50.974;4.968;2023-02-28T08:20:11;0.10;99.90
9975;DHT22;5028;50.974;4.968;2023-02-28T08:22:46;0.20;99.90
9975;DHT22;5028;50.974;4.968;2023-02-28T08:25:15;0.30;99.90
9975;DHT22;5028;50.974;4.968;2023-02-28T08:27:50;0.30;99.90
9975;DHT22;5028;50.974;4.968;2023-02-28T08:30:21;0.40;99.90
9975;DHT22;5028;50.974;4.968;2023-02-28T08:32:57;0.70;99.90
9975;DHT22;5028;50.974;4.968;2023-02-28T08:35:25;0.60;99.90
9975;DHT22;5028;50.974;4.968;2023-02-28T08:38:01;0.60;99.90
9975;DHT22;5028;50.974;4.968;2023-02-28T08:40:29;0.70;99.90
9975;DHT22;5028;50.974;4.968;2023-02-28T08:43:05;0.70;99.90
9975;DHT22;5028;50.974;4.968;2023-02-28T08:45:35;0.80;99.90
9975;DHT22;5028;50.974;4.968;2023-02-28T08:48:10;0.80;99.90
9975;DHT22;5028;50.974;4.968;2023-02-28T08:50:40;0.90;99.90
9975;DHT22;5028;50.974;4.968;2023-02-28T08:53:32;0.90;99.90
9975;DHT22;5028;50.974;4.968;2023-02-28T08:56:03;1.00;99.90
9975;DHT22;5028;50.974;4.968;2023-02-28T08:58:39;1.00;99.90
9975;DHT22;5028;50.974;4.968;2023-02-28T09:01:11;1.20;99.90
9975;DHT22;5028;50.974;4.968;2023-02-28T09:03:48;1.10;99.90
9975;DHT22;5028;50.974;4.968;2023-02-28T09:06:25;1.20;99.90
9975;DHT22;5028;50.974;4.968;2023-02-28T09:09:01;1.20;99.90
9975;DHT22;5028;50.974;4.968;2023-02-28T09:11:31;1.30;99.90
9975;DHT22;5028;50.974;4.968;2023-02-28T09:14:06;1.30;99.90
9975;DHT22;5028;50.974;4.968;2023-02-28T09:16:36;1.40;99.90
9975;DHT22;5028;50.974;4.968;2023-02-28T09:19:12;1.50;99.90
9975;DHT22;5028;50.974;4.968;2023-02-28T09:21:40;1.50;99.90
9975;DHT22;5028;50.974;4.968;2023-02-28T09:24:16;1.60;99.90
9975;DHT22;5028;50.974;4.968;2023-02-28T09:26:45;1.60;99.90
9975;DHT22;5028;50.974;4.968;2023-02-28T09:29:30;1.70;99.90
9975;DHT22;5028;50.974;4.968;2023-02-28T09:32:00;1.70;99.90
9975;DHT22;5028;50.974;4.968;2023-02-28T09:34:35;1.70;99.90
9975;DHT22;5028;50.974;4.968;2023-02-28T09:37:04;1.80;99.90
9975;DHT22;5028;50.974;4.968;2023-02-28T09:39:39;1.90;99.90
9975;DHT22;5028;50.974;4.968;2023-02-28T09:42:18;1.90;99.90
9975;DHT22;5028;50.974;4.968;2023-02-28T09:44:55;2.00;99.90
9975;DHT22;5028;50.974;4.968;2023-02-28T09:47:31;2.00;99.90
9975;DHT22;5028;50.974;4.968;2023-02-28T09:50:23;2.10;99.90
9975;DHT22;5028;50.974;4.968;2023-02-28T09:52:56;2.20;99.90
9975;DHT22;5028;50.974;4.968;2023-02-28T09:55:37;2.30;99.90
9975;DHT22;5028;50.974;4.968;2023-02-28T09:58:18;2.30;99.90
9975;DHT22;5028;50.974;4.968;2023-02-28T10:00:58;2.30;99.90
9975;DHT22;5028;50.974;4.968;2023-02-28T10:03:33;2.40;99.90
9975;DHT22;5028;50.974;4.968;2023-02-28T10:06:17;2.40;99.90
9975;DHT22;5028;50.974;4.968;2023-02-28T10:08:58;2.60;99.90
9975;DHT22;5028;50.974;4.968;2023-02-28T10:11:36;2.50;99.90
9975;DHT22;5028;50.974;4.968;2023-02-28T10:14:15;2.60;99.90
9975;DHT22;5028;50.974;4.968;2023-02-28T10:16:46;2.60;99.90
9975;DHT22;5028;50.974;4.968;2023-02-28T10:19:32;2.70;99.90
9975;DHT22;5028;50.974;4.968;2023-02-28T10:22:05;2.90;99.90
9975;DHT22;5028;50.974;4.968;2023-02-28T10:24:45;3.10;99.90
9975;DHT22;5028;50.974;4.968;2023-02-28T10:27:17;3.10;99.90
9975;DHT22;5028;50.974;4.968;2023-02-28T10:29:54;3.20;99.90
9975;DHT22;5028;50.974;4.968;2023-02-28T10:32:25;3.20;99.90
9975;DHT22;5028;50.974;4.968;2023-02-28T10:35:14;3.30;99.90
9975;DHT22;5028;50.974;4.968;2023-02-28T10:37:46;3.40;99.90
9975;DHT22;5028;50.974;4.968;2023-02-28T10:40:32;3.50;99.90
9975;DHT22;5028;50.974;4.968;2023-02-28T10:43:03;3.50;99.90
9975;DHT22;5028;50.974;4.968;2023-02-28T10:45:39;3.50;99.90
9975;DHT22;5028;50.974;4.968;2023-02-28T10:48:29;3.60;99.90
9975;DHT22;5028;50.974;4.968;2023-02-28T10:51:08;3.80;99.90
9975;DHT22;5028;50.974;4.968;2023-02-28T10:53:45;3.90;99.90
9975;DHT22;5028;50.974;4.968;2023-02-28T10:56:28;4.20;99.90
9975;DHT22;5028;50.974;4.968;2023-02-28T10:59:00;4.40;99.90
9975;DHT22;5028;50.974;4.968;2023-02-28T11:01:37;4.30;99.90
9975;DHT22;5028;50.974;4.968;2023-02-28T11:04:33;4.20;99.90
9975;DHT22;5028;50.974;4.968;2023-02-28T11:07:22;4.20;99.90
9975;DHT22;5028;50.974;4.968;2023-02-28T11:09:57;4.30;99.90
9975;DHT22;5028;50.974;4.968;2023-02-28T11:12:37;4.50;99.90
9975;DHT22;5028;50.974;4.968;2023-02-28T11:15:22;4.60;99.90
9975;DHT22;5028;50.974;4.968;2023-02-28T11:18:01;4.60;99.90
9975;DHT22;5028;50.974;4.968;2023-02-28T11:20:32;4.50;99.90
9975;DHT22;5028;50.974;4.968;2023-02-28T11:23:13;4.50;99.90
9975;DHT22;5028;50.974;4.968;2023-02-28T11:25:47;4.50;99.90
9975;DHT22;5028;50.974;4.968;2023-02-28T11:28:27;4.70;99.90
9975;DHT22;5028;50.974;4.968;2023-02-28T11:31:02;5.00;99.90
9975;DHT22;5028;50.974;4.968;2023-02-28T11:33:43;5.20;99.90
9975;DHT22;5028;50.974;4.968;2023-02-28T11:36:14;5.10;99.90
9975;DHT22;5028;50.974;4.968;2023-02-28T11:38:56;5.10;99.90
9975;DHT22;5028;50.974;4.968;2023-02-28T11:41:40;5.00;99.90
9975;DHT22;5028;50.974;4.968;2023-02-28T11:44:28;5.10;99.90
9975;DHT22;5028;50.974;4.968;2023-02-28T11:47:06;5.30;99.90
9975;DHT22;5028;50.974;4.968;2023-02-28T11:49:47;5.60;99.90
9975;DHT22;5028;50.974;4.968;2023-02-28T11:52:21;5.70;99.90
9975;DHT22;5028;50.974;4.968;2023-02-28T11:55:13;5.80;99.90
9975;DHT22;5028;50.974;4.968;2023-02-28T12:01:11;5.60;99.90
9975;DHT22;5028;50.974;4.968;2023-02-28T12:04:03;5.60;99.90
9975;DHT22;5028;50.974;4.968;2023-02-28T12:06:45;5.80;99.90
9975;DHT22;5028;50.974;4.968;2023-02-28T12:09:46;5.70;99.90
9975;DHT22;5028;50.974;4.968;2023-02-28T12:12:34;5.80;99.90
9975;DHT22;5028;50.974;4.968;2023-02-28T12:15:39;6.00;99.90
9975;DHT22;5028;50.974;4.968;2023-02-28T12:18:42;6.10;99.90
9975;DHT22;5028;50.974;4.968;2023-02-28T12:21:29;6.10;99.90
9975;DHT22;5028;50.974;4.968;2023-02-28T12:24:32;5.80;99.90
9975;DHT22;5028;50.974;4.968;2023-02-28T12:27:14;5.70;99.90
9975;DHT22;5028;50.974;4.968;2023-02-28T12:29:50;5.60;99.90
9975;DHT22;5028;50.974;4.968;2023-02-28T12:32:30;5.60;99.90
9975;DHT22;5028;50.974;4.968;2023-02-28T12:35:03;5.60;99.90
9975;DHT22;5028;50.974;4.968;2023-02-28T12:37:44;5.90;99.90
9975;DHT22;5028;50.974;4.968;2023-02-28T12:40:19;6.00;99.90
9975;DHT22;5028;50.974;4.968;2023-02-28T12:42:58;6.00;99.90
9975;DHT22;5028;50.974;4.968;2023-02-28T12:45:40;5.80;99.90
9975;DHT22;5028;50.974;4.968;2023-02-28T12:48:21;6.00;99.90
9975;DHT22;5028;50.974;4.968;2023-02-28T12:50:52;6.10;99.90
9975;DHT22;5028;50.974;4.968;2023-02-28T12:53:35;6.10;99.90
9975;DHT22;5028;50.974;4.968;2023-02-28T12:56:14;5.80;99.90
9975;DHT22;5028;50.974;4.968;2023-02-28T12:58:55;5.90;99.90
9975;DHT22;5028;50.974;4.968;2023-02-28T13:01:56;6.10;99.90
9975;DHT22;5028;50.974;4.968;2023-02-28T13:05:01;6.00;99.90
9975;DHT22;5028;50.974;4.968;2023-02-28T13:08:18;6.20;99.90
9975;DHT22;5028;50.974;4.968;2023-02-28T13:10:51;6.40;99.90
9975;DHT22;5028;50.974;4.968;2023-02-28T13:13:33;6.30;99.90
9975;DHT22;5028;50.974;4.968;2023-02-28T13:16:09;6.20;99.90
9975;DHT22;5028;50.974;4.968;2023-02-28T13:18:44;5.90;99.90
9975;DHT22;5028;50.974;4.968;2023-02-28T13:21:24;5.80;99.90
9975;DHT22;5028;50.974;4.968;2023-02-28T13:24:00;5.90;99.90
9975;DHT22;5028;50.974;4.968;2023-02-28T13:29:39;6.30;99.90
9975;DHT22;5028;50.974;4.968;2023-02-28T13:32:42;6.10;99.90
9975;DHT22;5028;50.974;4.968;2023-02-28T13:35:42;5.90;99.90
9975;DHT22;5028;50.974;4.968;2023-02-28T13:38:33;5.80;99.90
9975;DHT22;5028;50.974;4.968;2023-02-28T13:44:13;5.60;99.90
9975;DHT22;5028;50.974;4.968;2023-02-28T13:47:20;5.60;99.90
9975;DHT22;5028;50.974;4.968;2023-02-28T13:50:23;5.70;99.90
9975;DHT22;5028;50.974;4.968;2023-02-28T13:55:55;5.70;99.90
9975;DHT22;5028;50.974;4.968;2023-02-28T13:58:42;5.50;99.90
9975;DHT22;5028;50.974;4.968;2023-02-28T14:01:22;5.60;99.90
9975;DHT22;5028;50.974;4.968;2023-02-28T14:07:18;5.50;99.90
9975;DHT22;5028;50.974;4.968;2023-02-28T14:10:03;5.50;99.90
9975;DHT22;5028;50.974;4.968;2023-02-28T14:12:55;5.50;99.90
9975;DHT22;5028;50.974;4.968;2023-02-28T14:15:55;5.50;99.90
9975;DHT22;5028;50.974;4.968;2023-02-28T14:18:28;5.50;99.90
9975;DHT22;5028;50.974;4.968;2023-02-28T14:21:11;5.60;99.90
9975;DHT22;5028;50.974;4.968;2023-02-28T14:23:57;5.80;99.90
9975;DHT22;5028;50.974;4.968;2023-02-28T14:30:19;5.50;99.90
9975;DHT22;5028;50.974;4.968;2023-02-28T14:33:10;5.40;99.90
9975;DHT22;5028;50.974;4.968;2023-02-28T14:36:06;5.30;99.90
9975;DHT22;5028;50.974;4.968;2023-02-28T14:38:45;5.40;99.90
9975;DHT22;5028;50.974;4.968;2023-02-28T14:41:21;5.40;99.90
9975;DHT22;5028;50.974;4.968;2023-02-28T14:43:59;5.40;99.90
9975;DHT22;5028;50.974;4.968;2023-02-28T14:46:35;5.50;99.90
9975;DHT22;5028;50.974;4.968;2023-02-28T14:49:24;5.50;99.90
9975;DHT22;5028;50.974;4.968;2023-02-28T14:52:03;5.40;99.90
9975;DHT22;5028;50.974;4.968;2023-02-28T14:54:44;5.30;99.90
9975;DHT22;5028;50.974;4.968;2023-02-28T14:57:22;5.30;99.90
9975;DHT22;5028;50.974;4.968;2023-02-28T15:00:04;5.20;99.90
9975;DHT22;5028;50.974;4.968;2023-02-28T15:02:40;5.10;99.90
9975;DHT22;5028;50.974;4.968;2023-02-28T15:05:30;5.10;99.90
9975;DHT22;5028;50.974;4.968;2023-02-28T15:08:13;5.10;99.90
9975;DHT22;5028;50.974;4.968;2023-02-28T15:10:54;5.10;99.90
9975;DHT22;5028;50.974;4.968;2023-02-28T15:13:23;5.10;99.90
9975;DHT22;5028;50.974;4.968;2023-02-28T15:16:03;4.90;99.90
9975;DHT22;5028;50.974;4.968;2023-02-28T15:18:42;4.90;99.90
9975;DHT22;5028;50.974;4.968;2023-02-28T15:21:21;4.90;99.90
9975;DHT22;5028;50.974;4.968;2023-02-28T15:23:53;5.00;99.90
9975;DHT22;5028;50.974;4.968;2023-02-28T15:26:32;5.00;99.90
9975;DHT22;5028;50.974;4.968;2023-02-28T15:29:11;5.00;99.90
9975;DHT22;5028;50.974;4.968;2023-02-28T15:31:44;5.10;99.90
9975;DHT22;5028;50.974;4.968;2023-02-28T15:34:33;5.00;99.90
9975;DHT22;5028;50.974;4.968;2023-02-28T15:37:28;5.00;99.90
9975;DHT22;5028;50.974;4.968;2023-02-28T15:40:12;5.00;99.90
9975;DHT22;5028;50.974;4.968;2023-02-28T15:42:41;4.90;99.90
9975;DHT22;5028;50.974;4.968;2023-02-28T15:45:31;4.90;99.90
9975;DHT22;5028;50.974;4.968;2023-02-28T15:48:02;4.90;99.90
9975;DHT22;5028;50.974;4.968;2023-02-28T15:50:42;4.80;99.90
9975;DHT22;5028;50.974;4.968;2023-02-28T15:53:16;4.80;99.90
9975;DHT22;5028;50.974;4.968;2023-02-28T15:55:55;4.80;99.90
9975;DHT22;5028;50.974;4.968;2023-02-28T15:58:25;4.80;99.90
9975;DHT22;5028;50.974;4.968;2023-02-28T16:01:06;4.80;99.90
9975;DHT22;5028;50.974;4.968;2023-02-28T16:03:48;4.80;99.90
9975;DHT22;5028;50.974;4.968;2023-02-28T16:06:34;4.80;99.90
9975;DHT22;5028;50.974;4.968;2023-02-28T16:09:18;4.70;99.90
9975;DHT22;5028;50.974;4.968;2023-02-28T16:11:54;4.70;99.90
9975;DHT22;5028;50.974;4.968;2023-02-28T16:14:25;4.70;99.90
9975;DHT22;5028;50.974;4.968;2023-02-28T16:17:05;4.70;99.90
9975;DHT22;5028;50.974;4.968;2023-02-28T16:19:35;4.70;99.90
9975;DHT22;5028;50.974;4.968;2023-02-28T16:22:12;4.70;99.90
9975;DHT22;5028;50.974;4.968;2023-02-28T16:24:40;4.60;99.90
9975;DHT22;5028;50.974;4.968;2023-02-28T16:27:18;4.60;99.90
9975;DHT22;5028;50.974;4.968;2023-02-28T16:29:48;4.60;99.90
9975;DHT22;5028;50.974;4.968;2023-02-28T16:32:23;4.50;99.90
9975;DHT22;5028;50.974;4.968;2023-02-28T16:34:52;4.50;99.90
9975;DHT22;5028;50.974;4.968;2023-02-28T16:37:29;4.50;99.90
9975;DHT22;5028;50.974;4.968;2023-02-28T16:39:57;4.40;99.90
9975;DHT22;5028;50.974;4.968;2023-02-28T16:42:32;4.40;99.90
9975;DHT22;5028;50.974;4.968;2023-02-28T16:45:00;4.40;99.90
9975;DHT22;5028;50.974;4.968;2023-02-28T16:47:36;4.30;99.90
9975;DHT22;5028;50.974;4.968;2023-02-28T16:50:12;4.30;99.90
9975;DHT22;5028;50.974;4.968;2023-02-28T16:52:49;4.30;99.90
9975;DHT22;5028;50.974;4.968;2023-02-28T16:55:19;4.20;99.90
9975;DHT22;5028;50.974;4.968;2023-02-28T16:57:55;4.20;99.90
9975;DHT22;5028;50.974;4.968;2023-02-28T17:00:25;4.10;99.90
9975;DHT22;5028;50.974;4.968;2023-02-28T17:03:00;4.10;99.90
9975;DHT22;5028;50.974;4.968;2023-02-28T17:05:35;4.10;99.90
9975;DHT22;5028;50.974;4.968;2023-02-28T17:08:27;4.00;99.90
9975;DHT22;5028;50.974;4.968;2023-02-28T17:10:56;4.00;99.90
9975;DHT22;5028;50.974;4.968;2023-02-28T17:13:31;3.90;99.90
9975;DHT22;5028;50.974;4.968;2023-02-28T17:16:01;3.90;99.90
9975;DHT22;5028;50.974;4.968;2023-02-28T17:18:36;3.80;99.90
9975;DHT22;5028;50.974;4.968;2023-02-28T17:21:12;3.80;99.90
9975;DHT22;5028;50.974;4.968;2023-02-28T17:23:49;3.70;99.90
9975;DHT22;5028;50.974;4.968;2023-02-28T17:26:19;3.70;99.90
9975;DHT22;5028;50.974;4.968;2023-02-28T17:28:56;3.60;99.90
9975;DHT22;5028;50.974;4.968;2023-02-28T17:31:26;3.70;99.90
9975;DHT22;5028;50.974;4.968;2023-02-28T17:34:02;3.60;99.90
9975;DHT22;5028;50.974;4.968;2023-02-28T17:36:32;3.60;99.90
9975;DHT22;5028;50.974;4.968;2023-02-28T17:39:11;3.50;99.90